Time;durP1;ratioP1;P1;durP2;ratioP2;P2;SDS_P1;SDS_P2;PMS_P1;PMS_P2;Temp;Humidity;BMP_temperature;BMP_pressure;BME280_temperature;BME280_humidity;BME280_pressure;Samples;Min_cycle;Max_cycle;Signal;HPM_P1;HPM_P2
2024/02/03 00:00:01;;;;;;;40.85;25.27;;;;;;;11.16;84.92;100575.09;4972726;28;20056;-76
2024/02/03 00:02:27;;;;;;;36.83;25.90;;;;;;;11.16;85.02;100561.91;4972223;28;20109;-75
2024/02/03 00:04:54;;;;;;;38.97;25.35;;;;;;;11.15;85.02;100558.44;4972688;28;20047;-75
2024/02/03 00:07:21;;;;;;;38.90;25.20;;;;;;;11.16;85.15;100573.31;4972600;28;20059;-74
2024/02/03 00:09:48;;;;;;;39.03;25.58;;;;;;;11.17;85.06;100563.63;4972808;28;20550;-76
2024/02/03 00:12:15;;;;;;;37.00;24.98;;;;;;;11.16;85.14;100565.41;4972359;28;20480;-75
2024/02/03 00:14:42;;;;;;;39.58;25.00;;;;;;;11.18;85.08;100560.09;4972447;28;20496;-74
2024/02/03 00:17:09;;;;;;;35.90;24.73;;;;;;;11.19;84.84;100548.59;4972353;28;20054;-76
2024/02/03 00:19:35;;;;;;;36.65;25.50;;;;;;;11.18;84.84;100565.34;4972478;28;20047;-75
2024/02/03 00:22:02;;;;;;;37.85;25.55;;;;;;;11.19;84.76;100553.88;4972339;28;20586;-75
2024/02/03 00:24:29;;;;;;;36.05;26.10;;;;;;;11.17;84.74;100550.44;4972209;28;20424;-74
2024/02/03 00:26:55;;;;;;;36.45;25.83;;;;;;;11.17;84.76;100556.56;4972176;28;20047;-75
2024/02/03 00:29:22;;;;;;;36.45;25.10;;;;;;;11.16;84.77;100552.25;4972283;28;20139;-77
2024/02/03 00:31:49;;;;;;;35.97;24.23;;;;;;;11.18;84.80;100553.00;4971881;28;20134;-75
2024/02/03 00:34:16;;;;;;;39.13;25.05;;;;;;;11.18;84.87;100550.38;4971942;28;20069;-74
2024/02/03 00:36:42;;;;;;;36.38;24.45;;;;;;;11.17;84.66;100546.03;4971919;28;20059;-75
2024/02/03 00:39:09;;;;;;;34.70;24.60;;;;;;;11.18;84.75;100560.09;4972156;28;20054;-77
2024/02/03 00:41:36;;;;;;;39.67;24.15;;;;;;;11.18;84.90;100553.00;4971996;28;20089;-75
2024/02/03 00:44:02;;;;;;;34.58;23.83;;;;;;;11.19;84.95;100551.25;4971731;28;20539;-74
2024/02/03 00:46:29;;;;;;;35.60;25.33;;;;;;;11.20;84.77;100545.03;4971771;28;20062;-77
2024/02/03 00:48:56;;;;;;;35.95;22.60;;;;;;;11.20;84.85;100539.75;4971799;28;20053;-75
2024/02/03 00:51:22;;;;;;;33.85;22.75;;;;;;;11.19;84.90;100535.44;4971844;28;20474;-74
2024/02/03 00:53:49;;;;;;;38.22;23.75;;;;;;;11.19;84.66;100538.06;4972071;28;20053;-75
2024/02/03 00:56:16;;;;;;;35.10;23.73;;;;;;;11.17;84.56;100530.22;4971799;28;20117;-74
2024/02/03 00:58:42;;;;;;;34.42;22.85;;;;;;;11.19;84.80;100527.53;4954773;28;20094;-77
2024/02/03 01:01:09;;;;;;;34.67;23.15;;;;;;;11.20;84.76;100534.50;4971855;28;20102;-75
2024/02/03 01:03:36;;;;;;;36.95;23.85;;;;;;;11.20;84.89;100526.59;4971610;28;20128;-76
2024/02/03 01:06:03;;;;;;;34.40;22.60;;;;;;;11.21;85.00;100531.78;4971350;28;20408;-75
2024/02/03 01:10:57;;;;;;;34.35;22.45;;;;;;;11.21;84.72;100541.47;5041782;23;20389;-78
2024/02/03 01:13:24;;;;;;;34.60;21.85;;;;;;;11.21;84.82;100531.78;4955080;28;20156;-79
2024/02/03 01:15:51;;;;;;;35.72;22.85;;;;;;;11.22;84.95;100535.28;4971717;28;20055;-79
2024/02/03 01:18:18;;;;;;;32.20;22.50;;;;;;;11.22;84.88;100527.38;4971941;28;20043;-77
2024/02/03 01:20:45;;;;;;;33.58;22.13;;;;;;;11.23;84.83;100538.75;4972207;28;20130;-80
2024/02/03 01:23:11;;;;;;;31.30;21.83;;;;;;;11.23;85.10;100534.34;4971933;28;20053;-81
2024/02/03 01:25:38;;;;;;;33.60;22.05;;;;;;;11.25;84.96;100534.28;4971654;28;20051;-79
2024/02/03 01:28:05;;;;;;;32.60;22.08;;;;;;;11.24;85.04;100537.84;4971790;28;20050;-79
2024/02/03 01:30:31;;;;;;;33.67;21.20;;;;;;;11.25;85.06;100536.94;4954553;28;20492;-78
2024/02/03 01:32:58;;;;;;;33.58;21.67;;;;;;;11.25;84.89;100531.66;4971780;28;20050;-78
2024/02/03 01:35:24;;;;;;;32.53;22.15;;;;;;;11.26;84.90;100539.50;4971750;28;20463;-78
2024/02/03 01:37:51;;;;;;;33.33;21.95;;;;;;;11.27;84.97;100542.97;4971870;28;20082;-79
2024/02/03 01:40:17;;;;;;;31.85;21.52;;;;;;;11.26;84.67;100534.22;4971878;28;20105;-79
2024/02/03 01:42:44;;;;;;;35.53;22.60;;;;;;;11.26;84.75;100539.50;4972156;28;20055;-79
2024/02/03 01:45:12;;;;;;;27.75;20.52;;;;;;;11.26;84.79;100542.13;4975155;28;20054;-78
2024/02/03 01:47:40;;;;;;;35.72;22.90;;;;;;;11.26;84.77;100549.16;4975291;28;20673;-78
2024/02/03 01:50:07;;;;;;;32.90;22.38;;;;;;;11.24;84.85;100545.75;4958344;28;20054;-78
2024/02/03 01:52:35;;;;;;;33.03;22.08;;;;;;;11.24;84.86;100543.09;4975416;28;20051;-80
2024/02/03 01:55:02;;;;;;;30.33;21.65;;;;;;;11.23;84.90;100546.66;4974991;28;20051;-78
2024/02/03 01:57:31;;;;;;;33.75;21.05;;;;;;;11.23;85.06;100550.16;4975387;28;20058;-82
2024/02/03 01:59:57;;;;;;;28.98;20.77;;;;;;;11.22;84.87;100545.84;4975384;28;20046;-78
2024/02/03 02:02:24;;;;;;;33.70;22.08;;;;;;;11.21;85.06;100547.59;4957846;28;20138;-78
2024/02/03 02:04:51;;;;;;;27.92;20.92;;;;;;;11.20;85.07;100523.97;4975008;28;20074;-77
2024/02/03 02:07:20;;;;;;;32.47;22.55;;;;;;;11.20;85.24;100537.13;4957989;28;20051;-78
2024/02/03 02:09:48;;;;;;;33.97;21.85;;;;;;;11.20;85.23;100534.50;4957809;28;20050;-77
2024/02/03 02:12:14;;;;;;;26.92;20.70;;;;;;;11.20;85.34;100530.09;4975133;28;20097;-78
2024/02/03 02:14:41;;;;;;;27.35;20.38;;;;;;;11.20;85.11;100523.97;4957443;28;20050;-78
2024/02/03 02:17:08;;;;;;;30.48;21.73;;;;;;;11.20;85.47;100529.22;4974790;28;20488;-77
2024/02/03 02:19:34;;;;;;;30.92;20.63;;;;;;;11.20;85.44;100532.72;4957756;28;20047;-79
2024/02/03 02:22:01;;;;;;;30.90;21.95;;;;;;;11.20;85.47;100538.00;4975055;28;20059;-77
2024/02/03 02:24:27;;;;;;;33.17;21.58;;;;;;;11.19;85.37;100525.75;4974584;28;20057;-77
2024/02/03 02:26:54;;;;;;;31.88;21.45;;;;;;;11.18;85.53;100539.84;4974814;28;20090;-78
2024/02/03 02:29:20;;;;;;;26.00;19.02;;;;;;;11.19;85.66;100530.16;4974554;28;20097;-79
2024/02/03 02:31:47;;;;;;;27.85;19.90;;;;;;;11.19;85.61;100531.03;4974830;28;20061;-78
2024/02/03 02:34:14;;;;;;;28.73;19.77;;;;;;;11.20;85.57;100534.50;4957445;28;20061;-78
2024/02/03 02:36:40;;;;;;;26.58;20.33;;;;;;;11.20;85.59;100545.03;4957477;28;20500;-80
2024/02/03 02:39:09;;;;;;;25.83;18.75;;;;;;;11.20;85.54;100529.22;4974740;28;20055;-78
2024/02/03 02:41:36;;;;;;;28.33;20.27;;;;;;;11.19;85.53;100541.56;4974441;28;20078;-79
2024/02/03 02:44:03;;;;;;;27.38;19.02;;;;;;;11.20;85.55;100529.22;4974338;28;20524;-79
2024/02/03 02:46:30;;;;;;;27.10;19.65;;;;;;;11.18;85.54;100531.94;4974442;28;20047;-79
2024/02/03 02:48:56;;;;;;;31.15;19.50;;;;;;;11.19;85.80;100530.16;4974437;28;20050;-79
2024/02/03 02:51:23;;;;;;;29.65;20.05;;;;;;;11.17;85.69;100519.69;4974350;28;20042;-76
2024/02/03 02:53:50;;;;;;;25.70;18.98;;;;;;;11.19;85.71;100520.50;4956914;28;20061;-79
2024/02/03 02:56:16;;;;;;;23.48;18.80;;;;;;;11.18;85.47;100515.28;4973832;28;20055;-78
2024/02/03 02:58:43;;;;;;;22.88;19.05;;;;;;;11.17;85.79;100522.31;4956836;28;20086;-78
2024/02/03 03:01:09;;;;;;;26.13;19.83;;;;;;;11.17;85.75;100514.41;4974276;28;20049;-77
2024/02/03 03:03:36;;;;;;;29.63;19.58;;;;;;;11.16;85.89;100511.84;4974186;28;20479;-78
2024/02/03 03:06:03;;;;;;;24.17;18.08;;;;;;;11.16;85.91;100510.09;4973735;28;20051;-79
2024/02/03 03:08:30;;;;;;;25.42;18.80;;;;;;;11.17;85.91;100505.66;4973932;28;20145;-78
2024/02/03 03:10:57;;;;;;;23.67;18.23;;;;;;;11.16;85.88;100509.22;4956679;28;20079;-79
2024/02/03 03:13:23;;;;;;;22.88;16.25;;;;;;;11.16;85.80;100509.22;4973766;28;20138;-78
2024/02/03 03:15:50;;;;;;;19.88;16.27;;;;;;;11.17;86.04;100495.09;4973758;28;20050;-78
2024/02/03 03:18:17;;;;;;;21.70;17.08;;;;;;;11.16;86.06;100507.44;4973873;28;20051;-79
2024/02/03 03:20:43;;;;;;;21.40;17.40;;;;;;;11.15;85.91;100502.25;4973789;28;20058;-79
2024/02/03 03:23:10;;;;;;;22.50;16.70;;;;;;;11.14;85.97;100500.53;4973691;28;20145;-78
2024/02/03 03:25:39;;;;;;;19.23;16.17;;;;;;;11.14;86.10;100496.09;4973267;28;20406;-79
2024/02/03 03:28:06;;;;;;;20.08;15.80;;;;;;;11.14;86.19;100500.53;4956532;28;20404;-80
2024/02/03 03:30:33;;;;;;;21.63;17.13;;;;;;;11.15;86.26;100497.84;4973594;28;20101;-79
2024/02/03 03:32:59;;;;;;;19.52;16.42;;;;;;;11.14;86.18;100498.75;4973711;28;20047;-79
2024/02/03 03:35:26;;;;;;;20.73;15.55;;;;;;;11.14;86.22;100492.63;4973228;28;20467;-78
2024/02/03 03:37:53;;;;;;;19.02;15.05;;;;;;;11.14;86.09;100497.91;4973319;28;20047;-77
2024/02/03 03:40:19;;;;;;;21.00;16.75;;;;;;;11.12;86.37;100483.94;4973792;28;20142;-80
2024/02/03 03:42:47;;;;;;;19.08;15.07;;;;;;;11.13;86.36;100480.38;4973475;28;20050;-78
2024/02/03 03:45:14;;;;;;;19.55;15.65;;;;;;;11.12;86.21;100489.22;4973176;28;20050;-78
2024/02/03 03:47:41;;;;;;;20.55;16.00;;;;;;;11.12;86.32;100482.16;4973317;28;21028;-78
2024/02/03 03:50:08;;;;;;;22.77;16.35;;;;;;;11.13;86.45;100486.50;4955966;28;20046;-81
2024/02/03 03:52:35;;;;;;;19.98;14.75;;;;;;;11.14;86.59;100487.38;4973046;28;20163;-78
2024/02/03 03:55:01;;;;;;;18.85;15.10;;;;;;;11.14;86.48;100493.47;4972988;28;20141;-78
2024/02/03 03:57:28;;;;;;;21.20;15.27;;;;;;;11.15;86.60;100496.97;4972916;28;20480;-79
2024/02/03 03:59:54;;;;;;;19.67;15.52;;;;;;;11.15;86.46;100492.56;4973112;28;20058;-78
2024/02/03 04:02:21;;;;;;;18.92;14.70;;;;;;;11.16;86.55;100490.78;4972947;28;20057;-79
2024/02/03 04:04:47;;;;;;;18.77;15.52;;;;;;;11.17;86.50;100495.09;4955587;28;20049;-78
2024/02/03 04:07:14;;;;;;;18.77;13.98;;;;;;;11.18;86.51;100495.03;4972125;28;20050;-77
2024/02/03 04:09:48;;;;;;;17.17;13.65;;;;;;;11.19;86.67;100516.97;4972690;28;20082;-78
2024/02/03 04:12:15;;;;;;;17.63;14.80;;;;;;;11.20;86.80;100502.88;4972783;28;20050;-80
2024/02/03 04:14:42;;;;;;;19.38;13.93;;;;;;;11.20;86.50;100492.34;4972508;28;20057;-78
2024/02/03 04:17:09;;;;;;;16.23;13.13;;;;;;;11.20;86.66;100498.47;4972686;28;20492;-78
2024/02/03 04:19:35;;;;;;;20.75;14.35;;;;;;;11.21;86.48;100507.22;4972494;28;20496;-78
2024/02/03 04:22:02;;;;;;;16.98;13.07;;;;;;;11.23;86.58;100501.88;4972461;28;20055;-79
2024/02/03 04:24:29;;;;;;;16.27;13.30;;;;;;;11.22;86.50;100501.03;4972479;28;20126;-81
2024/02/03 04:26:57;;;;;;;15.93;13.50;;;;;;;11.23;86.45;100494.84;4972479;28;20052;-79
2024/02/03 04:29:23;;;;;;;17.83;13.55;;;;;;;11.24;86.45;100501.81;4972468;28;20050;-78
2024/02/03 04:31:50;;;;;;;18.15;12.70;;;;;;;11.24;86.38;100496.53;4972528;28;20054;-78
2024/02/03 04:34:18;;;;;;;14.48;12.27;;;;;;;11.25;86.46;100495.59;4972035;28;20512;-78
2024/02/03 04:36:46;;;;;;;16.20;12.85;;;;;;;11.25;86.39;100497.41;4972366;28;20057;-78
2024/02/03 04:39:13;;;;;;;15.60;12.98;;;;;;;11.25;86.50;100490.31;4955193;28;20051;-80
2024/02/03 04:41:40;;;;;;;14.27;12.32;;;;;;;11.26;86.34;100494.69;4955033;28;20512;-77
2024/02/03 04:44:06;;;;;;;15.40;12.65;;;;;;;11.26;86.31;100497.31;4972105;28;20042;-78
2024/02/03 04:46:33;;;;;;;14.63;12.60;;;;;;;11.24;86.40;100501.81;4954800;28;20520;-78
2024/02/03 04:49:00;;;;;;;16.58;12.82;;;;;;;11.24;86.31;100501.81;4954937;28;20058;-78
2024/02/03 04:51:29;;;;;;;15.52;11.93;;;;;;;11.26;86.47;100499.09;4972415;28;20042;-79
2024/02/03 04:53:55;;;;;;;15.35;12.20;;;;;;;11.25;86.46;100494.75;4972128;28;20062;-78
2024/02/03 04:56:21;;;;;;;13.82;11.25;;;;;;;11.24;86.41;100496.53;4971834;28;20059;-79
2024/02/03 04:58:48;;;;;;;15.13;12.10;;;;;;;11.24;86.40;100496.53;4972253;28;20062;-77
2024/02/03 05:01:15;;;;;;;14.00;11.20;;;;;;;11.25;86.44;100508.78;4972032;28;20090;-79
2024/02/03 05:03:41;;;;;;;17.40;12.07;;;;;;;11.25;86.74;100503.50;4971948;28;20141;-78
2024/02/03 05:06:08;;;;;;;15.63;12.43;;;;;;;11.25;86.64;100506.13;4971939;28;20082;-78
2024/02/03 05:08:35;;;;;;;16.58;12.43;;;;;;;11.25;86.46;100500.88;4972037;28;20054;-78
2024/02/03 05:11:02;;;;;;;18.80;12.15;;;;;;;11.25;86.55;100495.59;4971835;28;20053;-78
2024/02/03 05:13:29;;;;;;;16.73;12.68;;;;;;;11.25;86.43;100494.75;4971852;28;20047;-79
2024/02/03 05:15:55;;;;;;;19.25;12.27;;;;;;;11.25;86.62;100500.03;4971656;28;20065;-77
2024/02/03 05:18:22;;;;;;;15.40;13.45;;;;;;;11.26;86.52;100485.91;4973889;28;20057;-77
2024/02/03 05:20:49;;;;;;;16.52;12.93;;;;;;;11.25;86.58;100490.31;4958916;28;20516;-78
2024/02/03 05:23:16;;;;;;;14.85;12.10;;;;;;;11.25;86.48;100492.97;4975792;28;20057;-79
2024/02/03 05:25:43;;;;;;;15.15;12.52;;;;;;;11.25;86.65;100487.69;4958572;28;20084;-77
2024/02/03 05:28:10;;;;;;;19.20;13.98;;;;;;;11.24;86.57;100471.94;4975753;28;20389;-79
2024/02/03 05:30:36;;;;;;;16.90;13.23;;;;;;;11.24;86.67;100469.31;4975480;28;20051;-79
2024/02/03 05:33:03;;;;;;;16.30;13.80;;;;;;;11.25;86.72;100471.88;4976029;28;20047;-78
2024/02/03 05:35:30;;;;;;;16.80;14.13;;;;;;;11.23;86.84;100473.75;4975341;28;20404;-79
2024/02/03 05:37:56;;;;;;;18.23;13.75;;;;;;;11.24;86.73;100470.19;4975756;28;20051;-81
2024/02/03 05:40:23;;;;;;;16.63;13.80;;;;;;;11.25;86.94;100484.22;4975544;28;20047;-77
2024/02/03 05:42:49;;;;;;;17.92;13.68;;;;;;;11.27;86.92;100480.56;4975445;28;20419;-78
2024/02/03 05:45:17;;;;;;;19.17;14.10;;;;;;;11.27;86.95;100484.97;4975141;28;20051;-78
2024/02/03 05:47:43;;;;;;;16.23;14.07;;;;;;;11.27;86.95;100488.47;4975341;28;20081;-78
2024/02/03 05:50:10;;;;;;;16.88;14.57;;;;;;;11.26;86.92;100491.19;4975519;28;20142;-78
2024/02/03 05:52:37;;;;;;;19.50;14.77;;;;;;;11.27;87.01;100483.22;4957727;28;20211;-78
2024/02/03 05:55:04;;;;;;;18.98;15.07;;;;;;;11.27;87.08;100488.47;4957678;28;20137;-78
2024/02/03 05:57:30;;;;;;;17.70;14.82;;;;;;;11.28;86.88;100478.78;4975018;28;20059;-78
2024/02/03 05:59:57;;;;;;;20.42;15.30;;;;;;;11.28;86.98;100478.78;4975000;28;20105;-78
2024/02/03 06:02:23;;;;;;;22.40;15.65;;;;;;;11.28;86.98;100477.00;4975050;28;20086;-80
2024/02/03 06:04:49;;;;;;;17.83;14.95;;;;;;;11.29;87.04;100480.50;4974770;28;20086;-78
2024/02/03 06:07:16;;;;;;;17.08;14.73;;;;;;;11.30;86.90;100474.31;4957490;28;20459;-78
2024/02/03 06:09:44;;;;;;;20.08;15.25;;;;;;;11.29;87.16;100473.44;4974891;28;20055;-79
2024/02/03 06:12:10;;;;;;;19.02;14.95;;;;;;;11.30;86.98;100472.53;4974532;28;20069;-79
2024/02/03 06:14:40;;;;;;;17.85;15.20;;;;;;;11.31;86.91;100463.69;4974629;28;20054;-79
2024/02/03 06:17:07;;;;;;;21.25;15.82;;;;;;;11.30;86.90;100467.25;4974760;28;20055;-79
2024/02/03 06:19:33;;;;;;;20.73;16.10;;;;;;;11.31;86.91;100463.69;4974842;28;20104;-81
2024/02/03 06:22:00;;;;;;;25.73;16.40;;;;;;;11.30;86.95;100459.34;4974670;28;20054;-79
2024/02/03 06:24:26;;;;;;;17.15;14.60;;;;;;;11.31;86.83;100461.06;4974496;28;20042;-79
2024/02/03 06:26:53;;;;;;;19.73;15.98;;;;;;;11.31;86.92;100462.81;4974542;28;20508;-81
2024/02/03 06:29:19;;;;;;;20.52;15.18;;;;;;;11.32;86.89;100457.47;4974161;28;20113;-79
2024/02/03 06:31:46;;;;;;;18.73;15.05;;;;;;;11.31;86.90;100463.69;4974488;28;20428;-80
2024/02/03 06:34:12;;;;;;;23.02;15.93;;;;;;;11.31;86.98;100463.69;4974166;28;20125;-81
2024/02/03 06:36:40;;;;;;;22.38;16.20;;;;;;;11.31;87.05;100463.69;4974342;28;20559;-80
2024/02/03 06:39:08;;;;;;;23.02;16.15;;;;;;;11.31;87.09;100454.91;4974570;28;20053;-80
2024/02/03 06:41:35;;;;;;;20.10;16.77;;;;;;;11.31;86.98;100457.56;4974272;28;20134;-82
2024/02/03 06:44:01;;;;;;;20.70;15.93;;;;;;;11.31;87.14;100458.41;4956992;28;20055;-81
2024/02/03 06:46:28;;;;;;;21.20;16.23;;;;;;;11.31;86.94;100449.66;4974103;28;20101;-80
2024/02/03 06:48:54;;;;;;;23.08;15.57;;;;;;;11.31;86.94;100452.28;4974068;28;20059;-80
2024/02/03 06:51:21;;;;;;;21.58;17.15;;;;;;;11.30;87.11;100448.81;4974159;28;20624;-80
2024/02/03 06:53:48;;;;;;;20.67;16.92;;;;;;;11.31;87.12;100457.56;4974138;28;20058;-80
2024/02/03 06:56:14;;;;;;;20.70;16.88;;;;;;;11.31;87.15;100452.28;4956553;28;20050;-81
2024/02/03 06:58:41;;;;;;;22.02;17.58;;;;;;;11.29;87.11;100444.44;4973858;28;20133;-80
2024/02/03 07:01:07;;;;;;;22.40;17.55;;;;;;;11.31;87.24;100458.41;4973817;28;20054;-81
2024/02/03 07:03:34;;;;;;;23.30;17.50;;;;;;;11.31;87.33;100449.66;4973913;28;20555;-81
2024/02/03 07:06:01;;;;;;;23.33;17.85;;;;;;;11.31;87.40;100439.97;4972616;28;20069;-80
2024/02/03 07:08:29;;;;;;;22.77;18.00;;;;;;;11.31;87.41;100452.28;4972206;28;20090;-80
2024/02/03 07:10:55;;;;;;;25.35;19.33;;;;;;;11.32;87.33;100454.84;4972792;28;20109;-81
2024/02/03 07:13:22;;;;;;;21.67;17.30;;;;;;;11.32;87.39;100454.84;4955530;28;20044;-81
2024/02/03 07:15:50;;;;;;;21.98;16.98;;;;;;;11.32;87.48;100462.75;4972459;28;20053;-80
2024/02/03 07:18:16;;;;;;;21.30;17.77;;;;;;;11.34;87.46;100450.34;4972490;28;20059;-81
2024/02/03 07:20:43;;;;;;;21.77;16.50;;;;;;;11.35;87.67;100456.47;4973122;28;20051;-81
2024/02/03 07:23:10;;;;;;;22.17;17.98;;;;;;;11.36;87.37;100462.63;4973663;28;20070;-81
2024/02/03 07:25:36;;;;;;;23.85;18.38;;;;;;;11.36;87.42;100465.25;4973340;28;20162;-81
2024/02/03 07:28:03;;;;;;;22.98;18.02;;;;;;;11.37;87.36;100466.94;4973854;28;20133;-81
2024/02/03 07:30:30;;;;;;;23.00;18.25;;;;;;;11.37;87.27;100470.44;4973892;28;20054;-81
2024/02/03 07:32:56;;;;;;;21.85;17.02;;;;;;;11.37;87.41;100465.19;4956383;28;20055;-81
2024/02/03 07:35:24;;;;;;;25.58;18.77;;;;;;;11.38;87.28;100474.78;4973117;28;20105;-79
2024/02/03 07:37:51;;;;;;;23.02;19.13;;;;;;;11.38;87.15;100466.00;4973412;28;20058;-80
2024/02/03 07:40:18;;;;;;;23.48;19.17;;;;;;;11.37;87.10;100459.91;4972654;28;20051;-80
2024/02/03 07:42:45;;;;;;;27.92;18.88;;;;;;;11.37;87.30;100453.78;4973165;28;20556;-80
2024/02/03 07:45:12;;;;;;;23.33;18.98;;;;;;;11.37;87.52;100467.81;4972835;28;20058;-80
2024/02/03 07:47:39;;;;;;;23.98;19.00;;;;;;;11.38;87.31;100460.75;4973050;28;20546;-80
2024/02/03 07:50:06;;;;;;;24.98;19.20;;;;;;;11.38;87.56;100469.50;4956058;28;20051;-80
2024/02/03 07:52:32;;;;;;;34.10;19.83;;;;;;;11.39;87.46;100470.34;4956144;28;20138;-78
2024/02/03 07:54:59;;;;;;;23.05;19.00;;;;;;;11.39;87.49;100476.50;4973075;28;20082;-80
2024/02/03 07:57:25;;;;;;;23.95;19.35;;;;;;;11.40;87.27;100464.16;4955989;28;20110;-78
2024/02/03 07:59:52;;;;;;;23.42;18.58;;;;;;;11.40;87.32;100465.00;4972967;28;20054;-79
2024/02/03 08:02:19;;;;;;;20.13;17.33;;;;;;;11.40;87.55;100472.09;4972941;28;20097;-79
2024/02/03 08:04:45;;;;;;;25.00;17.48;;;;;;;11.43;87.34;100475.41;4972583;28;20046;-80
2024/02/03 08:07:12;;;;;;;23.65;17.02;;;;;;;11.40;87.09;100478.19;4955853;28;20042;-79
2024/02/03 08:09:38;;;;;;;21.88;16.45;;;;;;;11.42;87.27;100486.88;4972665;28;20043;-79
2024/02/03 08:12:05;;;;;;;22.75;17.48;;;;;;;11.43;87.34;100478.03;4972893;28;20055;-82
2024/02/03 08:14:32;;;;;;;23.52;17.58;;;;;;;11.43;87.33;100479.81;4955331;28;20058;-81
2024/02/03 08:16:58;;;;;;;23.45;17.85;;;;;;;11.43;87.11;100469.28;4972799;28;20090;-80
2024/02/03 08:19:25;;;;;;;19.27;16.50;;;;;;;11.43;87.29;100470.13;4972395;28;20455;-80
2024/02/03 08:21:51;;;;;;;21.17;16.27;;;;;;;11.43;87.13;100466.63;4972894;28;20625;-80
2024/02/03 08:24:18;;;;;;;18.45;14.98;;;;;;;11.43;87.11;100467.50;4955434;28;20081;-79
2024/02/03 08:26:45;;;;;;;20.73;15.43;;;;;;;11.43;87.33;100477.19;4971487;28;20047;-80
2024/02/03 08:29:11;;;;;;;17.73;15.25;;;;;;;11.44;87.47;100463.09;4971718;28;20472;-78
2024/02/03 08:31:38;;;;;;;17.90;15.18;;;;;;;11.45;87.41;100464.78;4972379;28;20051;-79
2024/02/03 08:34:04;;;;;;;21.42;14.60;;;;;;;11.45;87.29;100462.16;4971992;28;20090;-79
2024/02/03 08:36:31;;;;;;;16.80;14.95;;;;;;;11.45;87.43;100448.97;4972113;28;20133;-80
2024/02/03 08:38:58;;;;;;;22.35;15.25;;;;;;;11.45;87.47;100443.69;4955016;28;20199;-79
2024/02/03 08:41:24;;;;;;;17.05;14.00;;;;;;;11.46;87.41;100448.03;4972300;28;20046;-80
2024/02/03 08:43:52;;;;;;;18.10;14.98;;;;;;;11.47;87.61;100469.06;4972458;28;20063;-79
2024/02/03 08:46:18;;;;;;;19.15;15.50;;;;;;;11.48;87.50;100469.94;4971990;28;20051;-79
2024/02/03 08:48:45;;;;;;;22.23;15.05;;;;;;;11.49;87.23;100476.91;4972404;28;20532;-79
2024/02/03 08:51:16;;;;;;;15.02;13.43;;;;;;;11.47;87.17;100474.34;4972252;28;20176;-79
2024/02/03 08:53:42;;;;;;;19.05;15.20;;;;;;;11.51;87.28;100472.38;4972447;28;20166;-79
2024/02/03 08:56:09;;;;;;;16.33;14.30;;;;;;;11.51;87.42;100469.75;4972047;28;20106;-79
2024/02/03 08:58:36;;;;;;;19.30;14.23;;;;;;;11.51;87.44;100464.47;4972288;28;20055;-79
2024/02/03 09:01:02;;;;;;;18.60;14.07;;;;;;;11.52;87.56;100468.84;4954978;28;20054;-80
2024/02/03 09:03:29;;;;;;;18.35;14.00;;;;;;;11.54;87.54;100481.91;4972161;28;20137;-78
2024/02/03 09:05:56;;;;;;;18.40;13.88;;;;;;;11.56;87.49;100493.25;4972183;28;20047;-79
2024/02/03 09:08:23;;;;;;;17.52;14.18;;;;;;;11.56;87.59;100488.81;4972215;28;20046;-80
2024/02/03 09:10:49;;;;;;;17.45;15.00;;;;;;;11.57;87.64;100480.00;4938238;29;20047;-79
2024/02/03 09:13:16;;;;;;;21.45;14.52;;;;;;;11.58;87.53;100476.44;4952790;29;20264;-79
2024/02/03 09:15:42;;;;;;;19.70;15.10;;;;;;;11.61;87.51;100493.88;4952627;29;20063;-80
2024/02/03 09:18:09;;;;;;;18.58;14.73;;;;;;;11.63;87.81;100483.25;4935717;29;20059;-80
2024/02/03 09:20:36;;;;;;;20.20;15.18;;;;;;;11.63;87.63;100484.13;4952775;29;20106;-80
2024/02/03 09:23:02;;;;;;;24.02;15.65;;;;;;;11.65;87.66;100484.03;4935219;29;20055;-78
2024/02/03 09:25:29;;;;;;;18.90;15.25;;;;;;;11.66;87.49;100477.84;4952785;29;20510;-82
2024/02/03 09:27:55;;;;;;;24.25;15.45;;;;;;;11.69;87.78;100483.81;4952279;29;20051;-80
2024/02/03 09:30:22;;;;;;;20.63;15.35;;;;;;;11.70;87.72;100484.69;4952888;29;20058;-79
2024/02/03 09:32:49;;;;;;;18.75;14.93;;;;;;;11.71;87.78;100487.22;4952886;29;20055;-79
2024/02/03 09:35:16;;;;;;;18.33;14.90;;;;;;;11.73;87.92;100487.13;4952283;29;20051;-79
2024/02/03 09:37:44;;;;;;;25.65;15.98;;;;;;;11.74;87.39;100486.22;4935623;29;20062;-79
2024/02/03 09:40:22;;;;;;;18.67;15.55;;;;;;;11.73;87.18;100487.13;4936228;29;20142;-79
2024/02/03 09:42:49;;;;;;;22.98;16.20;;;;;;;11.76;87.47;100491.41;4952413;29;20051;-79
2024/02/03 09:45:17;;;;;;;19.70;14.50;;;;;;;11.79;87.65;100496.53;4952151;29;20089;-79
2024/02/03 09:47:46;;;;;;;20.48;14.25;;;;;;;11.79;87.55;100489.47;4952209;29;20098;-79
2024/02/03 09:50:13;;;;;;;19.70;14.35;;;;;;;11.81;87.51;100497.31;4952402;29;20047;-79
2024/02/03 09:52:40;;;;;;;20.92;14.13;;;;;;;11.83;87.57;100495.44;4952336;29;20044;-79
2024/02/03 09:55:07;;;;;;;17.35;14.18;;;;;;;11.84;87.47;100502.41;4952132;29;20253;-79
2024/02/03 09:57:33;;;;;;;19.38;14.38;;;;;;;11.87;87.81;100507.56;4952591;29;20043;-80
2024/02/03 10:00:00;;;;;;;22.52;14.88;;;;;;;11.89;87.69;100499.56;4952289;29;20055;-78
2024/02/03 10:02:27;;;;;;;16.30;13.80;;;;;;;11.90;87.56;100496.00;4952363;29;20491;-80
2024/02/03 10:04:55;;;;;;;19.85;14.13;;;;;;;11.92;87.67;100504.69;4954282;28;20133;-80
2024/02/03 10:07:22;;;;;;;19.30;14.40;;;;;;;11.94;87.79;100493.13;4955691;29;20106;-79
2024/02/03 10:09:48;;;;;;;18.92;13.88;;;;;;;11.97;87.57;100502.66;4964030;28;20476;-78
2024/02/03 10:12:18;;;;;;;17.45;12.60;;;;;;;11.99;87.57;100504.28;4975254;28;20569;-78
2024/02/03 10:15:05;;;;;;;19.48;13.80;;;;;;;12.00;86.85;100507.78;4974701;28;20411;-80
2024/02/03 10:17:33;;;;;;;15.00;12.23;;;;;;;12.04;87.31;100511.97;4974983;28;20149;-78
2024/02/03 10:19:59;;;;;;;15.35;12.57;;;;;;;12.05;87.23;100504.91;4974722;28;20101;-80
2024/02/03 10:22:26;;;;;;;18.63;12.93;;;;;;;12.05;86.88;100505.81;4974859;28;20051;-80
2024/02/03 10:24:58;;;;;;;17.50;13.02;;;;;;;12.04;86.68;100511.97;4968749;28;20119;-80
2024/02/03 10:27:24;;;;;;;15.25;12.82;;;;;;;12.07;86.56;100516.28;4938292;29;20493;-80
2024/02/03 10:29:55;;;;;;;20.65;12.80;;;;;;;12.06;86.60;100512.78;4938331;29;20512;-78
2024/02/03 10:32:22;;;;;;;16.13;13.88;;;;;;;12.07;86.74;100521.56;4938271;29;20453;-78
2024/02/03 10:34:51;;;;;;;15.25;13.65;;;;;;;12.06;86.89;100515.44;4954811;28;20162;-79
2024/02/03 10:37:18;;;;;;;19.27;13.38;;;;;;;12.07;86.94;100525.03;4955315;29;20103;-80
2024/02/03 10:39:46;;;;;;;18.50;14.05;;;;;;;12.08;86.86;100525.91;4955183;29;20110;-77
2024/02/03 10:42:22;;;;;;;17.77;13.20;;;;;;;12.06;86.31;100523.34;4974142;28;20062;-88
2024/02/03 10:44:52;;;;;;;17.50;13.57;;;;;;;12.09;87.09;100531.09;4974122;28;20503;-79
2024/02/03 10:47:21;;;;;;;16.00;12.68;;;;;;;12.10;86.88;100518.75;4974246;28;20094;-79
2024/02/03 10:49:48;;;;;;;18.10;12.88;;;;;;;12.14;87.22;100516.81;4974463;28;20137;-78
2024/02/03 10:52:17;;;;;;;19.80;13.57;;;;;;;12.12;87.03;100517.72;4974235;28;20476;-78
2024/02/03 10:54:51;;;;;;;23.98;14.05;;;;;;;12.14;86.57;100503.63;4974040;28;20117;-79
2024/02/03 10:57:18;;;;;;;17.90;13.50;;;;;;;12.16;86.97;100507.03;4957257;28;20051;-79
2024/02/03 10:59:45;;;;;;;18.48;13.30;;;;;;;12.18;87.01;100510.47;4974072;28;20110;-80
2024/02/03 11:02:17;;;;;;;21.80;14.75;;;;;;;12.16;86.19;100512.31;4974407;28;20559;-78
2024/02/03 11:04:47;;;;;;;18.70;14.07;;;;;;;12.19;86.09;100512.16;4974066;28;20782;-79
2024/02/03 11:07:25;;;;;;;22.52;14.00;;;;;;;12.16;85.73;100507.91;4974073;28;20138;-78
2024/02/03 11:10:01;;;;;;;18.45;13.32;;;;;;;12.20;86.57;100511.22;4947773;29;20059;-78